Time;durP1;ratioP1;P1;durP2;ratioP2;P2;SDS_P1;SDS_P2;PMS_P1;PMS_P2;Temp;Humidity;BMP_temperature;BMP_pressure;BME280_temperature;BME280_humidity;BME280_pressure;Samples;Min_cycle;Max_cycle;Signal;HPM_P1;HPM_P2
2020/12/07 00:00:56;;;;;;;31.83;14.90;;;9.10;85.30;;;;;;5028436;28;20032;-83
2020/12/07 00:03:22;;;;;;;35.07;14.83;;;9.10;85.30;;;;;;5046600;28;20048;-83
2020/12/07 00:06:08;;;;;;;26.10;12.37;;;9.20;85.40;;;;;;5025249;28;20045;-82
2020/12/07 00:08:36;;;;;;;28.83;12.47;;;9.20;85.30;;;;;;5029248;28;20034;-81
2020/12/07 00:11:22;;;;;;;31.83;13.40;;;9.10;85.20;;;;;;5039459;28;20072;-84
2020/12/07 00:13:47;;;;;;;22.30;11.23;;;9.10;85.30;;;;;;5049201;28;20080;-83
2020/12/07 00:16:33;;;;;;;19.03;10.67;;;9.10;85.20;;;;;;5040961;28;20060;-83
2020/12/07 00:19:20;;;;;;;21.67;10.33;;;9.10;85.20;;;;;;5021856;28;20039;-83
2020/12/07 00:22:07;;;;;;;18.83;9.83;;;9.10;85.30;;;;;;5041092;28;20116;-83
2020/12/07 00:24:33;;;;;;;18.30;9.93;;;9.10;85.20;;;;;;5034578;28;20047;-81
2020/12/07 00:26:59;;;;;;;20.00;10.03;;;9.10;85.10;;;;;;5061453;28;20033;-81
2020/12/07 00:29:25;;;;;;;15.40;9.10;;;9.10;85.10;;;;;;5047263;28;20112;-83
2020/12/07 00:31:51;;;;;;;13.43;8.77;;;9.00;85.10;;;;;;5061769;28;20036;-83
2020/12/07 00:34:18;;;;;;;16.90;8.83;;;9.00;85.00;;;;;;5047350;28;20040;-82
2020/12/07 00:36:44;;;;;;;19.93;9.27;;;9.00;85.00;;;;;;5041675;28;20056;-82
2020/12/07 00:39:10;;;;;;;15.83;9.00;;;9.40;85.30;;;;;;5030741;28;20052;-83
2020/12/07 00:41:59;;;;;;;17.47;8.77;;;9.00;85.80;;;;;;5031988;28;20046;-83
2020/12/07 00:44:24;;;;;;;15.00;8.97;;;9.00;85.30;;;;;;5041461;28;20033;-82
2020/12/07 00:46:50;;;;;;;18.47;9.03;;;8.90;85.30;;;;;;5039911;28;20029;-82
2020/12/07 00:49:37;;;;;;;20.97;9.07;;;8.90;85.40;;;;;;5032455;28;20056;-82
2020/12/07 00:52:23;;;;;;;15.67;8.53;;;8.90;85.40;;;;;;5032849;28;20096;-82
2020/12/07 00:54:50;;;;;;;17.50;9.40;;;8.90;85.40;;;;;;5020688;28;20041;-82
2020/12/07 00:57:16;;;;;;;16.40;9.10;;;8.90;85.40;;;;;;5026133;28;20124;-82
2020/12/07 01:00:03;;;;;;;18.90;9.17;;;8.90;85.30;;;;;;5003642;28;20053;-83
2020/12/07 01:02:32;;;;;;;19.37;9.83;;;8.90;85.30;;;;;;5025076;28;20422;-83
2020/12/07 01:04:59;;;;;;;17.40;8.77;;;8.90;85.30;;;;;;5028520;28;21029;-84
2020/12/07 01:07:25;;;;;;;14.50;7.73;;;8.90;85.90;;;;;;5028410;28;20029;-83
2020/12/07 01:09:50;;;;;;;13.63;8.93;;;9.00;85.30;;;;;;5014011;28;20041;-82
2020/12/07 01:12:36;;;;;;;15.30;8.63;;;8.90;85.20;;;;;;5039107;28;20461;-82
2020/12/07 01:15:22;;;;;;;16.17;8.90;;;8.90;85.10;;;;;;5026369;28;20056;-83
2020/12/07 01:17:48;;;;;;;18.87;9.87;;;8.80;85.00;;;;;;5000511;28;20100;-82
2020/12/07 01:20:13;;;;;;;20.70;10.80;;;8.80;85.10;;;;;;5010418;28;20038;-82
2020/12/07 01:22:39;;;;;;;21.33;10.37;;;8.80;85.10;;;;;;4996247;28;20061;-82
2020/12/07 01:25:05;;;;;;;19.43;9.83;;;8.80;85.20;;;;;;5015762;28;20103;-82
2020/12/07 01:27:32;;;;;;;23.17;11.17;;;8.80;85.10;;;;;;5032325;28;20072;-82
2020/12/07 01:29:57;;;;;;;22.60;11.57;;;8.80;85.10;;;;;;5043363;28;20062;-81
2020/12/07 01:32:23;;;;;;;27.90;11.87;;;8.80;85.20;;;;;;5014067;28;20075;-81
2020/12/07 01:35:09;;;;;;;28.20;12.67;;;8.80;85.10;;;;;;5018850;28;20033;-81
2020/12/07 01:37:35;;;;;;;34.03;13.27;;;8.80;85.00;;;;;;5046827;28;20029;-81
2020/12/07 01:40:00;;;;;;;28.73;13.50;;;8.80;85.00;;;;;;5034985;28;20068;-82
2020/12/07 01:42:26;;;;;;;34.77;13.03;;;8.80;85.00;;;;;;5031521;28;20051;-82
2020/12/07 01:44:52;;;;;;;37.30;14.23;;;8.70;84.90;;;;;;5042758;28;20087;-82
2020/12/07 01:47:37;;;;;;;46.50;13.70;;;8.70;85.00;;;;;;5022809;28;20045;-82
2020/12/07 01:50:24;;;;;;;47.83;13.93;;;8.70;85.00;;;;;;5016123;28;20046;-82
2020/12/07 01:52:49;;;;;;;52.23;14.13;;;8.70;85.10;;;;;;5008660;28;20037;-84
2020/12/07 01:55:15;;;;;;;51.37;15.83;;;8.70;85.00;;;;;;5044780;28;20043;-83
2020/12/07 01:57:42;;;;;;;39.40;13.27;;;8.70;85.00;;;;;;5037843;28;20458;-84
2020/12/07 02:00:28;;;;;;;38.13;15.23;;;8.70;85.00;;;;;;5034894;28;20037;-82
2020/12/07 02:02:54;;;;;;;44.10;15.00;;;8.60;85.00;;;;;;5027703;28;20481;-82
2020/12/07 02:05:40;;;;;;;43.03;15.47;;;8.60;85.10;;;;;;5019014;28;20132;-83
2020/12/07 02:08:18;;;;;;;39.90;14.93;;;8.60;85.10;;;;;;5027864;28;20112;-83
2020/12/07 02:10:44;;;;;;;42.20;14.43;;;8.60;85.20;;;;;;5027435;28;20069;-82
2020/12/07 02:13:30;;;;;;;34.67;12.97;;;8.60;85.30;;;;;;5034070;28;20128;-82
2020/12/07 02:15:56;;;;;;;40.60;15.37;;;8.60;85.20;;;;;;5033794;28;20528;-82
2020/12/07 02:18:22;;;;;;;44.33;15.13;;;8.70;85.20;;;;;;5044583;28;20055;-83
2020/12/07 02:20:48;;;;;;;39.00;15.60;;;8.50;85.10;;;;;;5032492;28;20029;-82
2020/12/07 02:23:33;;;;;;;42.33;15.87;;;8.50;85.20;;;;;;5036062;28;20080;-83
2020/12/07 02:25:59;;;;;;;43.13;15.50;;;8.50;85.00;;;;;;5028652;28;20057;-81
2020/12/07 02:28:49;;;;;;;41.13;14.30;;;8.50;85.00;;;;;;5029353;28;20045;-81
2020/12/07 02:31:15;;;;;;;58.13;15.40;;;8.70;85.20;;;;;;5040946;28;20048;-82
2020/12/07 02:33:40;;;;;;;56.13;16.20;;;8.40;85.20;;;;;;5014772;28;20045;-81
2020/12/07 02:36:09;;;;;;;49.97;15.90;;;8.50;85.30;;;;;;5033574;28;20057;-81
2020/12/07 02:38:36;;;;;;;44.00;12.67;;;8.50;85.30;;;;;;5019581;28;20040;-81
2020/12/07 02:41:23;;;;;;;54.07;15.33;;;8.40;85.20;;;;;;5016675;28;20122;-81
2020/12/07 02:44:08;;;;;;;46.03;15.23;;;8.40;85.30;;;;;;5018632;28;20103;-81
2020/12/07 02:46:34;;;;;;;59.27;16.67;;;8.40;85.30;;;;;;5047029;28;20036;-81
2020/12/07 02:49:20;;;;;;;46.03;13.97;;;8.40;85.30;;;;;;5016327;28;20043;-81
2020/12/07 02:51:46;;;;;;;54.83;16.30;;;8.40;85.30;;;;;;5031093;28;20041;-81
2020/12/07 02:54:12;;;;;;;48.13;14.83;;;8.40;85.20;;;;;;5023783;28;20043;-81
2020/12/07 02:56:38;;;;;;;61.73;15.60;;;8.40;85.30;;;;;;5032841;28;20067;-81
2020/12/07 02:59:03;;;;;;;217.10;22.43;;;8.40;85.40;;;;;;5047481;28;20033;-82
2020/12/07 03:01:29;;;;;;;60.80;16.77;;;8.40;85.30;;;;;;5026366;28;20125;-81
2020/12/07 03:03:55;;;;;;;246.03;22.00;;;8.40;85.30;;;;;;5011004;28;20037;-81
2020/12/07 03:06:20;;;;;;;62.43;17.10;;;8.40;85.30;;;;;;5010928;28;20040;-81
2020/12/07 03:08:46;;;;;;;60.77;16.07;;;8.40;85.30;;;;;;5047171;28;20029;-81
2020/12/07 03:11:12;;;;;;;67.27;17.47;;;8.30;85.30;;;;;;5050131;28;20044;-81
2020/12/07 03:13:58;;;;;;;70.23;16.10;;;8.30;85.30;;;;;;5034976;28;20056;-81
2020/12/07 03:16:24;;;;;;;48.60;16.27;;;8.30;85.40;;;;;;4999097;28;20033;-80
2020/12/07 03:18:50;;;;;;;53.50;15.60;;;8.30;85.30;;;;;;5032403;28;20048;-81
2020/12/07 03:21:36;;;;;;;105.93;16.67;;;8.30;85.30;;;;;;5048202;28;20374;-81
2020/12/07 03:24:02;;;;;;;95.07;15.77;;;8.30;85.30;;;;;;5046194;28;20048;-81
2020/12/07 03:26:47;;;;;;;37.80;13.50;;;8.30;85.30;;;;;;5015426;28;20629;-81
2020/12/07 03:29:13;;;;;;;32.00;13.23;;;8.30;85.30;;;;;;5026496;28;20053;-81
2020/12/07 03:31:59;;;;;;;35.77;13.73;;;8.30;85.40;;;;;;5029936;28;20071;-81
2020/12/07 03:34:44;;;;;;;33.57;12.80;;;8.30;85.40;;;;;;5045144;28;20060;-82
2020/12/07 03:37:10;;;;;;;20.57;11.47;;;8.30;85.30;;;;;;5013281;28;20029;-82
2020/12/07 03:39:56;;;;;;;34.00;12.47;;;8.30;85.30;;;;;;5034976;28;20044;-81
2020/12/07 03:42:22;;;;;;;31.77;11.70;;;8.30;85.40;;;;;;5041285;28;20041;-81
2020/12/07 03:44:47;;;;;;;21.03;10.30;;;8.20;85.30;;;;;;5035652;28;20025;-81
2020/12/07 03:47:13;;;;;;;26.37;11.20;;;8.60;85.60;;;;;;5031895;28;20427;-81
2020/12/07 03:49:59;;;;;;;37.53;11.17;;;8.30;85.40;;;;;;5027290;28;20041;-81
2020/12/07 03:52:25;;;;;;;23.90;10.40;;;8.30;85.40;;;;;;5027475;28;20474;-82
2020/12/07 03:54:51;;;;;;;19.73;9.70;;;8.30;85.20;;;;;;5029279;28;20035;-82
2020/12/07 03:57:17;;;;;;;24.17;9.87;;;8.30;85.30;;;;;;5023747;28;20040;-82
2020/12/07 03:59:43;;;;;;;22.70;10.13;;;8.30;85.20;;;;;;5014930;28;20034;-82
2020/12/07 04:02:08;;;;;;;20.80;10.10;;;8.30;85.20;;;;;;5024257;28;20041;-82
2020/12/07 04:04:44;;;;;;;21.70;9.80;;;8.30;85.30;;;;;;5028805;28;20056;-82
2020/12/07 04:07:30;;;;;;;23.63;9.73;;;8.40;85.30;;;;;;5012260;28;20033;-82
2020/12/07 04:09:56;;;;;;;18.90;10.13;;;8.40;85.40;;;;;;5032605;28;20108;-82
2020/12/07 04:12:22;;;;;;;16.63;8.50;;;8.30;85.30;;;;;;5046119;28;20045;-82
2020/12/07 04:14:47;;;;;;;17.57;9.57;;;8.60;85.30;;;;;;5015822;28;20029;-82
2020/12/07 04:17:13;;;;;;;207.23;13.23;;;8.40;85.20;;;;;;5045202;28;20040;-82
2020/12/07 04:19:39;;;;;;;25.50;9.00;;;8.30;85.10;;;;;;5030906;28;20041;-82
2020/12/07 04:22:05;;;;;;;21.03;9.33;;;8.40;85.20;;;;;;5034122;28;20041;-82
2020/12/07 04:24:30;;;;;;;15.23;8.60;;;8.30;85.10;;;;;;5048911;28;20037;-82
2020/12/07 04:26:56;;;;;;;14.77;7.93;;;8.30;85.00;;;;;;5026500;28;20041;-82
2020/12/07 04:29:22;;;;;;;162.93;10.67;;;8.30;85.10;;;;;;5033785;28;20448;-82
2020/12/07 04:31:47;;;;;;;17.50;7.63;;;8.30;85.10;;;;;;5044547;28;20114;-82
2020/12/07 04:34:13;;;;;;;108.30;10.73;;;8.20;85.00;;;;;;5031958;28;20061;-82
2020/12/07 04:36:59;;;;;;;89.37;9.37;;;8.20;85.20;;;;;;5035560;28;20409;-82
2020/12/07 04:39:24;;;;;;;11.83;7.27;;;8.70;85.60;;;;;;5030497;28;20033;-81
2020/12/07 04:41:50;;;;;;;65.97;8.47;;;8.20;85.30;;;;;;5028667;28;20421;-82
2020/12/07 04:44:36;;;;;;;16.00;7.53;;;8.20;85.30;;;;;;5019431;28;20037;-81
2020/12/07 04:47:02;;;;;;;14.20;7.30;;;8.20;85.20;;;;;;5025268;28;20048;-81
2020/12/07 04:49:47;;;;;;;19.40;7.47;;;8.20;85.20;;;;;;5012946;28;20037;-82
2020/12/07 04:52:13;;;;;;;79.97;8.67;;;8.20;85.30;;;;;;5025407;28;20120;-82
2020/12/07 04:54:43;;;;;;;14.03;7.20;;;8.20;85.40;;;;;;5006039;28;20250;-82
2020/12/07 04:57:29;;;;;;;40.97;7.90;;;8.20;85.50;;;;;;5007609;28;20037;-82
2020/12/07 04:59:55;;;;;;;62.13;9.00;;;8.20;86.10;;;;;;5027591;28;20116;-82
2020/12/07 05:02:21;;;;;;;149.67;9.17;;;8.20;85.40;;;;;;5012639;28;20389;-83
2020/12/07 05:05:07;;;;;;;107.70;8.20;;;8.20;85.40;;;;;;5021182;28;20056;-83
2020/12/07 05:07:33;;;;;;;13.23;6.57;;;8.20;85.30;;;;;;5028962;28;20416;-83
2020/12/07 05:10:05;;;;;;;22.43;5.50;;;8.30;85.40;;;;;;5027811;28;20148;-83
2020/12/07 05:12:37;;;;;;;121.23;8.10;;;8.20;85.30;;;;;;5036192;28;20037;-83
2020/12/07 05:15:08;;;;;;;173.13;9.33;;;8.20;85.20;;;;;;5035353;28;20029;-83
2020/12/07 05:17:56;;;;;;;8.90;4.87;;;8.10;85.20;;;;;;5007651;28;20037;-83
2020/12/07 05:20:23;;;;;;;10.13;5.40;;;8.10;85.80;;;;;;4997452;28;20037;-83
2020/12/07 05:22:49;;;;;;;32.70;5.90;;;8.10;85.30;;;;;;5011643;28;20397;-83
2020/12/07 05:25:15;;;;;;;53.20;6.77;;;8.10;85.20;;;;;;5028363;28;20040;-83
2020/12/07 05:27:43;;;;;;;61.10;6.33;;;8.10;85.30;;;;;;5024452;28;20052;-83
2020/12/07 05:30:35;;;;;;;8.03;4.80;;;8.30;85.50;;;;;;5007362;28;20044;-83
2020/12/07 05:33:01;;;;;;;7.80;5.40;;;8.00;85.30;;;;;;5033778;28;20105;-83
2020/12/07 05:35:27;;;;;;;9.50;5.77;;;8.00;85.30;;;;;;5021215;28;20056;-83
2020/12/07 05:37:52;;;;;;;63.83;8.33;;;7.90;85.30;;;;;;5054304;28;20064;-83
2020/12/07 05:40:38;;;;;;;10.33;6.30;;;7.90;85.20;;;;;;5024545;28;20068;-82
2020/12/07 05:43:04;;;;;;;11.07;6.67;;;7.90;85.30;;;;;;5039944;28;20037;-83
2020/12/07 05:45:29;;;;;;;11.07;6.80;;;7.90;85.40;;;;;;5034349;28;20597;-82
2020/12/07 05:47:55;;;;;;;22.03;7.63;;;7.90;85.50;;;;;;5036169;28;20116;-83
2020/12/07 05:50:21;;;;;;;10.80;7.10;;;7.90;85.30;;;;;;5054000;28;20029;-83
2020/12/07 05:52:54;;;;;;;10.03;6.47;;;7.90;85.30;;;;;;5035939;28;20033;-83
2020/12/07 05:55:21;;;;;;;18.20;7.10;;;7.80;85.30;;;;;;5047473;28;20044;-83
2020/12/07 05:58:05;;;;;;;13.87;6.73;;;7.80;85.20;;;;;;5052461;28;20039;-83
2020/12/07 06:00:32;;;;;;;10.63;6.93;;;7.80;85.50;;;;;;5048200;28;20055;-83
2020/12/07 06:02:59;;;;;;;12.37;6.20;;;7.80;85.50;;;;;;5019091;28;20056;-85
2020/12/07 06:05:24;;;;;;;9.80;6.73;;;7.80;85.50;;;;;;5053785;28;20561;-90
2020/12/07 06:08:06;;;;;;;11.83;6.83;;;7.60;85.40;;;;;;5050653;28;20044;-89
2020/12/07 06:10:38;;;;;;;12.20;6.73;;;7.80;85.50;;;;;;5050218;28;20041;-88
2020/12/07 06:13:05;;;;;;;11.73;6.50;;;7.70;85.50;;;;;;5054793;28;20040;-87
2020/12/07 06:15:56;;;;;;;57.67;7.97;;;7.70;85.50;;;;;;5025512;28;20036;-87
2020/12/07 06:18:32;;;;;;;27.67;7.37;;;7.70;85.40;;;;;;5048709;28;20040;-89
2020/12/07 06:21:03;;;;;;;6.87;5.73;;;7.70;85.60;;;;;;5061207;28;20032;-89
2020/12/07 06:23:30;;;;;;;10.27;6.00;;;7.70;85.40;;;;;;5045727;28;20036;-89
2020/12/07 06:26:00;;;;;;;28.87;7.10;;;7.70;85.50;;;;;;5034101;28;20500;-89
2020/12/07 06:28:30;;;;;;;10.57;6.10;;;7.90;85.60;;;;;;5038984;28;20111;-86
2020/12/07 06:31:19;;;;;;;9.03;5.73;;;7.60;85.40;;;;;;5032985;28;20053;-86
2020/12/07 06:33:49;;;;;;;11.30;6.37;;;7.80;85.70;;;;;;5049281;28;20037;-87
2020/12/07 06:36:35;;;;;;;14.10;6.20;;;7.60;85.90;;;;;;5055030;28;20036;-89
2020/12/07 06:39:08;;;;;;;10.97;6.67;;;7.60;86.00;;;;;;5037348;28;20037;-89
2020/12/07 06:41:34;;;;;;;10.73;6.07;;;7.60;86.20;;;;;;5051158;28;20049;-89
2020/12/07 06:44:00;;;;;;;8.13;5.87;;;7.60;86.40;;;;;;5048828;28;20456;-88
2020/12/07 06:47:00;;;;;;;11.13;5.67;;;7.60;86.40;;;;;;5018323;28;20049;-88
2020/12/07 06:50:00;;;;;;;12.73;5.50;;;7.60;86.30;;;;;;5058394;28;20435;-88
2020/12/07 06:52:47;;;;;;;7.00;5.30;;;7.60;86.50;;;;;;5028856;28;20105;-88
2020/12/07 06:55:15;;;;;;;8.03;5.07;;;7.60;86.60;;;;;;5022919;28;20040;-88
2020/12/07 06:57:48;;;;;;;13.57;5.40;;;7.60;86.40;;;;;;5055899;28;20051;-88
2020/12/07 07:00:34;;;;;;;9.17;5.40;;;7.60;86.40;;;;;;5048141;28;20040;-88
2020/12/07 07:03:00;;;;;;;8.67;5.33;;;7.60;86.50;;;;;;5054648;28;20063;-88
2020/12/07 07:05:55;;;;;;;222.70;13.50;;;7.60;86.40;;;;;;5035503;28;20037;-87
2020/12/07 07:08:21;;;;;;;17.97;6.27;;;7.60;86.60;;;;;;5044334;28;20037;-88
2020/12/07 07:10:47;;;;;;;8.70;5.67;;;7.50;86.60;;;;;;5042046;28;20088;-88
2020/12/07 07:13:35;;;;;;;106.47;8.40;;;7.60;86.70;;;;;;5041619;28;20037;-88
2020/12/07 07:16:11;;;;;;;9.17;6.40;;;7.60;86.60;;;;;;5054441;28;20083;-88
2020/12/07 07:18:37;;;;;;;7.57;5.30;;;7.60;86.50;;;;;;5044989;28;20036;-86
2020/12/07 07:21:03;;;;;;;27.00;5.60;;;7.60;86.50;;;;;;5050287;28;20051;-86
2020/12/07 07:23:30;;;;;;;212.03;12.20;;;7.60;86.40;;;;;;5049674;28;20044;-87
2020/12/07 07:26:02;;;;;;;25.33;6.37;;;7.60;86.30;;;;;;5057305;28;20473;-85
2020/12/07 07:28:31;;;;;;;8.67;5.40;;;7.60;86.50;;;;;;5040387;28;20087;-86
2020/12/07 07:31:17;;;;;;;11.93;6.10;;;7.50;86.30;;;;;;5030743;28;20048;-86
2020/12/07 07:33:43;;;;;;;20.30;6.07;;;7.60;86.60;;;;;;5038107;28;20121;-88
2020/12/07 07:36:20;;;;;;;8.40;6.07;;;7.60;86.60;;;;;;5054158;28;20033;-86
2020/12/07 07:38:45;;;;;;;9.90;7.43;;;7.50;86.50;;;;;;5055829;28;20037;-88
2020/12/07 07:41:24;;;;;;;13.57;8.73;;;8.00;86.80;;;;;;5037751;28;20616;-89
2020/12/07 07:43:51;;;;;;;12.97;8.17;;;7.60;86.50;;;;;;5034379;28;20131;-86
2020/12/07 07:46:18;;;;;;;14.20;8.73;;;7.50;86.50;;;;;;5001219;28;20442;-87
2020/12/07 07:49:21;;;;;;;13.67;8.87;;;7.50;86.50;;;;;;5045500;28;20064;-84
2020/12/07 08:18:07;;;;;;;13.40;8.27;;;7.50;87.10;;;;;;4981077;28;20096;-85
2020/12/07 08:20:37;;;;;;;14.33;8.20;;;7.50;87.10;;;;;;5009933;28;20053;-84
2020/12/07 08:23:06;;;;;;;34.10;8.50;;;7.50;87.10;;;;;;5026111;28;20561;-83
2020/12/07 08:25:50;;;;;;;11.70;8.10;;;7.50;87.20;;;;;;5017567;28;20036;-86
2020/12/07 08:28:36;;;;;;;35.17;8.57;;;7.50;87.00;;;;;;5013169;28;20037;-84
2020/12/07 08:31:03;;;;;;;13.20;9.33;;;7.50;87.20;;;;;;5051511;28;20102;-85
2020/12/07 08:33:29;;;;;;;15.00;9.53;;;7.50;87.20;;;;;;5044462;28;20044;-86
2020/12/07 08:35:56;;;;;;;12.30;7.53;;;7.50;87.20;;;;;;5031060;28;20052;-84
2020/12/07 08:38:34;;;;;;;15.63;7.50;;;7.50;87.20;;;;;;5030339;28;20056;-87
2020/12/07 08:41:25;;;;;;;15.83;9.63;;;7.60;87.30;;;;;;5016595;28;20029;-85
2020/12/07 08:44:01;;;;;;;10.37;7.73;;;7.60;87.20;;;;;;5030066;28;20089;-87
2020/12/07 08:46:30;;;;;;;11.07;7.77;;;7.70;87.30;;;;;;5024447;28;20124;-85
2020/12/07 08:48:56;;;;;;;16.40;9.17;;;7.80;87.40;;;;;;5036529;28;20045;-86
2020/12/07 08:51:42;;;;;;;12.13;7.67;;;7.80;87.40;;;;;;5032825;28;20140;-83
2020/12/07 08:54:08;;;;;;;11.07;7.23;;;7.80;87.30;;;;;;5050930;28;20052;-85
2020/12/07 08:56:34;;;;;;;12.37;6.97;;;7.80;87.30;;;;;;5035189;28;20055;-81
2020/12/07 08:58:59;;;;;;;14.83;10.37;;;7.80;87.00;;;;;;5013291;28;20036;-84
2020/12/07 09:01:27;;;;;;;14.57;7.87;;;7.90;87.10;;;;;;5031733;28;20053;-84
2020/12/07 09:03:53;;;;;;;17.57;8.47;;;7.90;87.10;;;;;;5031203;28;20033;-84
2020/12/07 09:06:20;;;;;;;12.53;7.67;;;7.90;87.20;;;;;;5029379;28;20039;-84
2020/12/07 09:08:46;;;;;;;13.63;7.57;;;7.90;87.20;;;;;;5023678;28;20045;-83
2020/12/07 09:11:13;;;;;;;19.83;8.93;;;8.00;87.20;;;;;;5028866;28;20029;-83
2020/12/07 09:13:59;;;;;;;15.70;8.17;;;8.00;87.20;;;;;;5018402;28;20041;-82
2020/12/07 09:16:25;;;;;;;19.90;10.80;;;8.10;87.90;;;;;;5023039;28;20096;-82
2020/12/07 09:19:11;;;;;;;200.97;15.43;;;8.10;87.20;;;;;;5021102;28;20370;-83
2020/12/07 09:21:36;;;;;;;25.40;11.83;;;8.10;86.90;;;;;;5031966;28;20037;-83
2020/12/07 09:24:02;;;;;;;23.27;10.40;;;8.10;86.90;;;;;;5045895;28;20041;-82
2020/12/07 09:26:28;;;;;;;22.37;10.47;;;8.10;86.80;;;;;;5027855;28;20095;-83
2020/12/07 09:28:54;;;;;;;20.20;10.60;;;8.10;86.80;;;;;;5044604;28;20045;-83
2020/12/07 09:31:19;;;;;;;30.63;14.40;;;8.10;86.90;;;;;;5027129;28;20051;-84
2020/12/07 09:33:47;;;;;;;19.63;14.43;;;8.40;87.10;;;;;;5042148;28;20076;-82
2020/12/07 09:36:33;;;;;;;18.23;10.60;;;8.20;86.90;;;;;;5032347;28;20040;-84
2020/12/07 09:38:58;;;;;;;23.30;10.47;;;8.20;87.00;;;;;;5019683;28;20413;-84
2020/12/07 09:41:24;;;;;;;15.73;9.57;;;8.30;86.90;;;;;;5031773;28;20052;-85
2020/12/07 09:43:50;;;;;;;21.53;10.33;;;8.20;86.70;;;;;;5051308;28;20041;-83
2020/12/07 09:46:17;;;;;;;15.83;9.30;;;8.50;87.00;;;;;;5042171;28;20063;-85
2020/12/07 09:48:42;;;;;;;18.77;8.47;;;8.20;86.90;;;;;;5050130;28;20037;-84
2020/12/07 09:51:11;;;;;;;17.23;8.17;;;8.30;87.00;;;;;;5035255;28;20041;-83
2020/12/07 09:53:37;;;;;;;18.00;8.70;;;8.20;86.80;;;;;;5025247;28;20064;-83
2020/12/07 09:56:03;;;;;;;14.80;7.30;;;8.30;86.90;;;;;;5038199;28;20045;-85
2020/12/07 09:58:29;;;;;;;14.73;7.93;;;8.30;86.90;;;;;;5032401;28;20061;-83
2020/12/07 10:00:54;;;;;;;17.67;7.87;;;8.30;86.80;;;;;;5050038;28;20080;-87
2020/12/07 10:03:21;;;;;;;22.83;8.60;;;8.30;86.90;;;;;;5026531;28;20045;-87
2020/12/07 10:05:46;;;;;;;15.50;7.50;;;8.30;86.90;;;;;;5033318;28;20116;-84
2020/12/07 10:08:12;;;;;;;14.93;7.57;;;8.30;86.90;;;;;;5034586;28;20033;-84
2020/12/07 10:10:58;;;;;;;13.40;7.23;;;8.30;87.00;;;;;;5038559;28;20108;-86
2020/12/07 10:13:24;;;;;;;16.30;8.47;;;8.40;87.00;;;;;;5034692;28;20060;-84
2020/12/07 10:16:10;;;;;;;14.60;6.97;;;8.40;87.00;;;;;;5025108;28;20059;-84
2020/12/07 10:18:35;;;;;;;12.80;6.63;;;8.40;87.10;;;;;;5025914;28;20037;-84
2020/12/07 10:21:25;;;;;;;11.37;6.03;;;8.50;87.10;;;;;;5030899;28;20532;-84
2020/12/07 10:23:52;;;;;;;14.23;5.50;;;8.50;87.10;;;;;;5033702;28;20166;-87
2020/12/07 10:26:24;;;;;;;11.20;4.87;;;8.50;87.10;;;;;;5041931;28;20137;-83
2020/12/07 10:28:51;;;;;;;16.27;5.37;;;8.60;87.10;;;;;;5018233;28;20045;-84
2020/12/07 10:31:19;;;;;;;9.13;3.93;;;8.60;87.00;;;;;;5024311;28;20048;-83
2020/12/07 10:33:45;;;;;;;9.57;4.20;;;8.70;87.10;;;;;;5017223;28;20037;-85
2020/12/07 10:36:31;;;;;;;13.10;2.83;;;8.80;87.10;;;;;;5043903;28;20393;-83
2020/12/07 10:38:57;;;;;;;8.43;2.47;;;8.80;87.70;;;;;;5025409;28;20105;-83
2020/12/07 10:41:27;;;;;;;9.17;2.43;;;8.80;87.00;;;;;;5020212;28;20073;-82
2020/12/07 10:44:13;;;;;;;6.27;2.20;;;8.80;87.00;;;;;;5008422;28;20065;-84
2020/12/07 10:46:58;;;;;;;5.73;2.30;;;9.00;87.20;;;;;;5051035;28;20045;-86
2020/12/07 10:49:24;;;;;;;6.00;1.73;;;8.90;87.00;;;;;;5045187;28;20588;-86
2020/12/07 10:51:50;;;;;;;6.37;1.93;;;9.00;87.00;;;;;;5021230;28;20048;-87
2020/12/07 10:54:35;;;;;;;8.73;1.73;;;9.00;86.80;;;;;;5020441;28;20040;-84
2020/12/07 10:57:01;;;;;;;3.20;1.23;;;9.10;86.80;;;;;;5036302;28;20580;-83
2020/12/07 10:59:27;;;;;;;7.30;1.73;;;9.00;86.80;;;;;;5030227;28;20052;-84
2020/12/07 11:01:57;;;;;;;5.27;1.83;;;9.00;86.70;;;;;;5042867;28;20132;-88
2020/12/07 11:04:43;;;;;;;13.40;2.17;;;9.10;87.30;;;;;;5016509;28;20049;-86
2020/12/07 11:07:30;;;;;;;3.67;1.30;;;9.10;86.80;;;;;;4986166;28;20099;-84
2020/12/07 11:09:56;;;;;;;5.17;1.40;;;9.10;86.80;;;;;;5041991;28;20037;-86
2020/12/07 11:12:44;;;;;;;5.10;1.83;;;9.20;86.80;;;;;;5054143;28;20045;-84
2020/12/07 11:15:10;;;;;;;9.60;1.37;;;9.20;86.80;;;;;;5036178;28;20044;-85
2020/12/07 11:17:56;;;;;;;7.07;1.60;;;9.20;86.70;;;;;;5025955;28;20040;-83
2020/12/07 11:20:21;;;;;;;6.03;1.57;;;9.20;86.80;;;;;;5036207;28;20124;-85
2020/12/07 11:22:48;;;;;;;5.60;1.80;;;9.30;86.80;;;;;;5045015;28;20064;-85
2020/12/07 11:25:14;;;;;;;6.23;1.13;;;9.20;86.80;;;;;;5034355;28;20091;-87
2020/12/07 11:27:41;;;;;;;12.07;1.87;;;9.20;86.80;;;;;;5028969;28;20047;-82
2020/12/07 11:30:27;;;;;;;4.10;1.73;;;9.30;86.70;;;;;;5011943;28;20051;-84
2020/12/07 11:33:12;;;;;;;8.83;1.33;;;9.30;86.70;;;;;;5044199;28;20042;-83
2020/12/07 11:35:38;;;;;;;7.80;1.97;;;9.30;86.80;;;;;;5052891;28;20048;-83
2020/12/07 11:38:23;;;;;;;4.10;1.90;;;9.30;86.80;;;;;;5043928;28;20029;-84
2020/12/07 11:47:01;;;;;;;3.97;1.30;;;9.40;86.80;;;;;;5005727;28;20054;-88
2020/12/07 11:49:27;;;;;;;5.47;1.27;;;9.40;86.80;;;;;;5058645;28;20449;-84
2020/12/07 11:51:53;;;;;;;5.00;1.30;;;9.40;86.80;;;;;;5027376;28;20040;-87
2020/12/07 11:54:19;;;;;;;6.73;1.37;;;9.50;86.90;;;;;;5026416;28;20028;-86
2020/12/07 11:57:05;;;;;;;3.73;1.17;;;9.50;86.80;;;;;;5034155;28;20559;-83
2020/12/07 11:59:31;;;;;;;6.20;1.53;;;9.50;86.70;;;;;;5031479;28;20072;-85
2020/12/07 12:01:57;;;;;;;4.63;0.87;;;9.60;86.70;;;;;;5056826;28;20037;-83
2020/12/07 12:04:25;;;;;;;2.90;1.13;;;9.60;86.70;;;;;;5038148;28;20045;-85
2020/12/07 12:07:30;;;;;;;5.30;0.80;;;9.60;86.60;;;;;;5048577;28;20044;-82
2020/12/07 12:09:56;;;;;;;2.50;0.40;;;9.60;86.60;;;;;;5038586;28;20041;-83
2020/12/07 12:12:22;;;;;;;5.00;0.70;;;9.60;86.60;;;;;;5056262;28;20047;-84
2020/12/07 12:15:07;;;;;;;4.10;1.03;;;9.50;86.50;;;;;;5037784;28;20083;-83
2020/12/07 12:17:33;;;;;;;3.10;0.83;;;9.60;86.70;;;;;;5050516;28;20048;-82
2020/12/07 12:20:19;;;;;;;2.03;0.70;;;9.60;86.60;;;;;;5024135;28;20040;-84
2020/12/07 12:22:44;;;;;;;2.63;0.90;;;9.50;86.60;;;;;;5047549;28;20055;-82
2020/12/07 12:25:30;;;;;;;3.10;0.80;;;9.60;86.70;;;;;;5051858;28;20075;-83
2020/12/07 12:27:56;;;;;;;2.70;0.90;;;9.50;86.80;;;;;;5041732;28;20921;-82
2020/12/07 12:30:22;;;;;;;2.13;0.80;;;9.50;86.90;;;;;;5047963;28;20037;-82
2020/12/07 12:33:09;;;;;;;2.63;0.83;;;9.60;86.90;;;;;;5021729;28;20893;-84
2020/12/07 12:35:35;;;;;;;3.70;1.10;;;9.50;87.10;;;;;;5038850;28;20523;-83
2020/12/07 12:38:01;;;;;;;7.90;1.20;;;9.50;86.80;;;;;;5016343;28;20049;-83
2020/12/07 12:40:27;;;;;;;3.13;1.10;;;9.60;86.90;;;;;;5048025;28;20075;-83
2020/12/07 12:42:53;;;;;;;1.83;1.07;;;9.60;86.90;;;;;;5041082;28;20063;-83
2020/12/07 12:45:39;;;;;;;2.80;1.13;;;9.60;86.80;;;;;;5030582;28;20062;-82
2020/12/07 12:48:25;;;;;;;3.80;1.30;;;9.60;86.80;;;;;;5052609;28;20049;-87
2020/12/07 12:51:02;;;;;;;2.70;0.90;;;9.70;86.70;;;;;;5041776;28;20045;-85
2020/12/07 12:53:28;;;;;;;;;;;9.90;86.90;;;;;;5033785;28;20122;-84
2020/12/07 12:56:13;;;;;;;6.73;0.90;;;9.60;86.90;;;;;;5038871;28;20019;-83
2020/12/07 12:58:39;;;;;;;7.03;1.07;;;9.70;87.10;;;;;;5044556;28;20056;-83
2020/12/07 13:01:25;;;;;;;5.45;1.08;;;9.60;87.00;;;;;;5037969;28;20052;-84
2020/12/07 13:03:51;;;;;;;7.18;1.15;;;9.60;86.90;;;;;;5046353;28;20033;-84
2020/12/07 13:06:17;;;;;;;4.22;1.15;;;9.60;86.70;;;;;;5041433;28;20055;-85
2020/12/07 13:08:43;;;;;;;4.57;1.00;;;9.60;86.70;;;;;;5031031;28;20041;-84
2020/12/07 13:11:34;;;;;;;3.10;1.15;;;9.70;86.70;;;;;;5015053;28;20138;-83
2020/12/07 13:14:01;;;;;;;5.13;1.27;;;9.70;86.70;;;;;;5028323;28;21252;-84
2020/12/07 13:16:32;;;;;;;3.63;1.00;;;9.60;86.60;;;;;;5038209;28;20040;-83
2020/12/07 13:19:19;;;;;;;5.28;1.00;;;9.70;86.70;;;;;;5030547;28;20896;-83
2020/12/07 13:22:14;;;;;;;3.53;1.17;;;9.70;86.70;;;;;;5039114;28;20035;-83
2020/12/07 13:24:50;;;;;;;3.40;0.90;;;9.70;86.50;;;;;;5050879;28;20365;-83
2020/12/07 13:27:53;;;;;;;5.07;1.30;;;9.70;86.50;;;;;;5047679;28;20044;-84
2020/12/07 13:30:27;;;;;;;3.77;1.47;;;9.70;86.60;;;;;;5038368;28;20067;-85
2020/12/07 13:32:53;;;;;;;6.97;1.70;;;9.70;86.60;;;;;;5055941;28;20041;-83
2020/12/07 13:35:40;;;;;;;9.97;1.50;;;9.70;86.60;;;;;;5053894;28;20036;-84
2020/12/07 13:38:16;;;;;;;5.93;2.42;;;9.70;86.70;;;;;;5063297;28;20043;-84
2020/12/07 13:40:42;;;;;;;6.53;2.40;;;9.70;86.60;;;;;;5044676;28;20128;-85
2020/12/07 13:43:27;;;;;;;6.90;1.70;;;9.70;86.50;;;;;;5055464;28;20076;-84
2020/12/07 13:45:56;;;;;;;4.72;1.90;;;9.70;86.50;;;;;;5036680;28;20119;-84